createdAt,value
2022-11-10T00:01:08.107Z,99.90
2022-11-10T00:04:10.180Z,99.90
2022-11-10T00:07:12.300Z,99.90
2022-11-10T00:10:15.554Z,99.90
2022-11-10T00:13:17.564Z,99.90
2022-11-10T00:16:38.079Z,99.90
2022-11-10T00:19:41.035Z,99.90
2022-11-10T00:22:43.087Z,99.90
2022-11-10T00:25:45.132Z,99.90
2022-11-10T00:28:47.158Z,99.90
2022-11-10T00:31:49.376Z,99.90
2022-11-10T00:34:51.767Z,99.90
2022-11-10T00:37:53.740Z,99.90
2022-11-10T00:40:55.816Z,99.90
2022-11-10T00:43:58.393Z,99.90
2022-11-10T00:47:02.795Z,99.90
2022-11-10T00:50:05.226Z,99.90
2022-11-10T00:53:07.802Z,99.90
2022-11-10T00:56:09.938Z,99.90
2022-11-10T00:59:12.000Z,99.90
2022-11-10T01:02:14.087Z,99.90
2022-11-10T01:05:17.194Z,99.90
2022-11-10T01:08:19.340Z,99.90
2022-11-10T01:11:27.238Z,99.90
2022-11-10T01:14:29.328Z,99.90
2022-11-10T01:17:31.411Z,99.90
2022-11-10T01:20:35.082Z,99.90
2022-11-10T01:23:37.247Z,99.90
2022-11-10T01:26:39.345Z,99.90
2022-11-10T01:29:41.545Z,99.90
2022-11-10T01:32:43.601Z,99.90
2022-11-10T01:35:46.314Z,99.90
2022-11-10T01:38:48.341Z,99.90
2022-11-10T01:41:51.423Z,99.90
2022-11-10T01:45:24.769Z,99.90
2022-11-10T01:48:57.452Z,99.90
2022-11-10T01:52:06.555Z,99.90
2022-11-10T01:55:08.759Z,99.90
2022-11-10T01:58:13.935Z,99.90
2022-11-10T02:01:16.508Z,99.90
2022-11-10T02:04:20.691Z,99.90
2022-11-10T02:07:23.377Z,99.90
2022-11-10T02:10:25.502Z,99.90
2022-11-10T02:13:28.527Z,99.90
2022-11-10T02:16:31.209Z,99.90
2022-11-10T02:19:41.387Z,99.90
2022-11-10T02:22:44.117Z,99.90
2022-11-10T02:25:46.151Z,99.90
2022-11-10T02:28:48.337Z,99.90
2022-11-10T02:31:50.620Z,99.90
2022-11-10T02:34:53.046Z,99.90
2022-11-10T02:37:55.070Z,99.90
2022-11-10T02:40:57.158Z,99.90
2022-11-10T02:43:59.952Z,99.90
2022-11-10T02:47:01.998Z,99.90
2022-11-10T02:50:04.252Z,99.90
2022-11-10T02:53:06.827Z,99.90
2022-11-10T02:56:09.464Z,99.90
2022-11-10T02:59:11.484Z,99.90
2022-11-10T03:02:14.140Z,99.90
2022-11-10T03:05:16.327Z,99.90
2022-11-10T03:08:18.369Z,99.90
2022-11-10T03:11:20.580Z,99.90
2022-11-10T03:14:22.646Z,99.90
2022-11-10T03:17:24.762Z,99.90
2022-11-10T03:20:26.802Z,99.90
2022-11-10T03:23:28.914Z,99.90
2022-11-10T03:26:30.922Z,99.90
2022-11-10T03:29:33.280Z,99.90
2022-11-10T03:32:35.391Z,99.90
2022-11-10T03:35:37.470Z,99.90
2022-11-10T03:38:39.644Z,99.90
2022-11-10T03:41:42.673Z,99.90
2022-11-10T03:44:44.868Z,99.90
2022-11-10T03:47:48.709Z,99.90
2022-11-10T03:50:50.970Z,99.90
2022-11-10T03:53:53.019Z,99.90
2022-11-10T03:56:55.331Z,99.90
2022-11-10T03:59:57.374Z,99.90
2022-11-10T04:02:59.525Z,99.90
2022-11-10T04:06:20.117Z,99.90
2022-11-10T04:09:22.180Z,99.90
2022-11-10T04:12:57.365Z,99.90
2022-11-10T04:16:00.021Z,99.90
2022-11-10T04:19:02.288Z,99.90
2022-11-10T04:22:04.594Z,99.90
2022-11-10T04:25:07.156Z,99.90
2022-11-10T04:28:12.059Z,99.90
2022-11-10T04:31:15.440Z,99.90
2022-11-10T04:34:17.650Z,99.90
2022-11-10T04:37:19.679Z,99.90
2022-11-10T04:40:21.780Z,99.90
2022-11-10T04:43:24.147Z,99.90
2022-11-10T04:46:39.579Z,99.90
2022-11-10T04:49:41.628Z,99.90
2022-11-10T04:52:43.668Z,99.90
2022-11-10T04:55:46.534Z,99.90
2022-11-10T04:58:48.927Z,99.90
2022-11-10T05:01:55.782Z,99.90
2022-11-10T05:04:57.935Z,99.90
2022-11-10T05:08:01.039Z,99.90
2022-11-10T05:11:05.034Z,99.90
2022-11-10T05:14:07.213Z,99.90
2022-11-10T05:17:15.101Z,99.90
2022-11-10T05:20:24.609Z,99.90
2022-11-10T05:23:38.719Z,99.90
2022-11-10T05:26:40.746Z,99.90
2022-11-10T05:29:42.809Z,99.90
2022-11-10T05:32:44.981Z,99.90
2022-11-10T05:35:52.581Z,99.90
2022-11-10T05:38:54.695Z,99.90
2022-11-10T05:41:56.806Z,99.90
2022-11-10T05:44:58.821Z,99.90
2022-11-10T05:48:01.044Z,99.90
2022-11-10T05:51:03.086Z,99.90
2022-11-10T05:54:05.238Z,99.90
2022-11-10T05:57:07.304Z,99.90
2022-11-10T06:00:10.260Z,99.90
2022-11-10T06:03:17.953Z,99.90
2022-11-10T06:06:20.778Z,99.90
2022-11-10T06:09:23.761Z,99.90
2022-11-10T06:12:47.049Z,99.90
2022-11-10T06:15:50.558Z,99.90
2022-11-10T06:18:52.881Z,99.90
2022-11-10T06:22:01.331Z,99.90
2022-11-10T06:25:06.884Z,99.90
2022-11-10T06:28:09.889Z,99.90
2022-11-10T06:31:12.009Z,99.90
2022-11-10T06:34:14.109Z,99.90
2022-11-10T06:37:16.395Z,99.90
2022-11-10T06:40:18.455Z,99.90
2022-11-10T06:43:20.863Z,99.90
2022-11-10T06:46:23.262Z,99.90
2022-11-10T06:49:25.475Z,99.90
2022-11-10T06:52:27.950Z,99.90
2022-11-10T06:55:30.725Z,99.90
2022-11-10T06:58:32.774Z,99.90
2022-11-10T07:01:34.832Z,99.90
2022-11-10T07:04:36.854Z,99.90
2022-11-10T07:07:39.074Z,99.90
2022-11-10T07:10:41.216Z,99.90
2022-11-10T07:13:43.757Z,99.90
2022-11-10T07:16:46.059Z,99.90
2022-11-10T07:19:48.165Z,99.90
2022-11-10T07:22:50.223Z,99.90
2022-11-10T07:25:52.251Z,99.90
2022-11-10T07:28:54.294Z,99.90
2022-11-10T07:31:56.697Z,99.90
2022-11-10T07:34:59.984Z,99.90
2022-11-10T07:38:05.670Z,99.90
2022-11-10T07:41:08.121Z,99.90
2022-11-10T07:44:12.220Z,99.90
2022-11-10T07:47:14.213Z,99.90
2022-11-10T07:50:17.336Z,99.90
2022-11-10T07:53:23.707Z,99.90
2022-11-10T07:56:26.814Z,99.90
2022-11-10T07:59:28.835Z,99.90
2022-11-10T08:02:30.937Z,99.90
2022-11-10T08:05:33.695Z,99.90
2022-11-10T08:08:35.833Z,99.90
2022-11-10T08:11:37.954Z,99.90
2022-11-10T08:14:40.041Z,99.90
2022-11-10T08:17:42.073Z,99.90
2022-11-10T08:20:47.109Z,99.90
2022-11-10T08:23:49.559Z,99.90
2022-11-10T08:26:51.624Z,99.90
2022-11-10T08:29:56.691Z,99.90
2022-11-10T08:33:03.393Z,99.90
2022-11-10T08:36:05.829Z,99.90
2022-11-10T08:39:07.894Z,99.90
2022-11-10T08:42:10.097Z,99.90
2022-11-10T08:45:12.448Z,99.90
2022-11-10T08:48:17.300Z,99.90
2022-11-10T08:51:19.341Z,99.90
2022-11-10T08:54:21.473Z,99.90
2022-11-10T08:57:23.715Z,99.90
2022-11-10T09:00:28.804Z,99.90
2022-11-10T09:03:34.073Z,99.90
2022-11-10T09:06:36.337Z,99.90
2022-11-10T09:09:38.431Z,99.90
2022-11-10T09:12:41.738Z,98.40
2022-11-10T09:15:45.115Z,96.30
2022-11-10T09:18:47.181Z,93.40
2022-11-10T09:21:49.322Z,90.70
2022-11-10T09:24:51.403Z,87.60
2022-11-10T09:27:53.478Z,83.20
2022-11-10T09:30:55.738Z,81.40
2022-11-10T09:33:59.491Z,75.30
2022-11-10T09:37:02.536Z,74.00
2022-11-10T09:40:05.759Z,72.30
2022-11-10T09:43:22.976Z,69.20
2022-11-10T09:46:30.548Z,67.40
2022-11-10T09:49:38.780Z,65.00
2022-11-10T09:52:42.252Z,65.40
2022-11-10T09:55:49.463Z,64.80
2022-11-10T09:58:52.235Z,66.20
2022-11-10T10:02:44.523Z,67.60
2022-11-10T10:06:09.939Z,66.50
2022-11-10T10:09:24.305Z,66.60
2022-11-10T10:12:37.711Z,66.10
2022-11-10T10:16:03.389Z,62.10
2022-11-10T10:19:32.044Z,64.40
2022-11-10T10:22:58.477Z,62.70
2022-11-10T10:26:01.732Z,60.00
2022-11-10T10:29:09.788Z,60.40
2022-11-10T10:32:15.918Z,57.80
2022-11-10T10:35:18.796Z,56.80
2022-11-10T10:38:34.997Z,60.10
2022-11-10T10:41:37.260Z,57.20
2022-11-10T10:44:39.483Z,58.60
2022-11-10T10:47:43.987Z,58.90
2022-11-10T10:50:46.714Z,57.90
2022-11-10T10:53:48.879Z,56.20
2022-11-10T10:56:51.177Z,58.20
2022-11-10T11:00:18.425Z,57.70
2022-11-10T11:03:27.827Z,58.00
2022-11-10T11:06:39.931Z,58.30
2022-11-10T11:09:44.158Z,59.00
2022-11-10T11:12:46.297Z,56.70
2022-11-10T11:16:07.916Z,58.10
2022-11-10T11:19:11.387Z,58.50
2022-11-10T11:22:35.566Z,59.50
2022-11-10T11:25:42.608Z,59.60
2022-11-10T11:28:47.649Z,60.30
2022-11-10T11:32:14.272Z,61.60
2022-11-10T11:35:50.870Z,63.90
2022-11-10T11:39:04.850Z,66.90
2022-11-10T11:42:06.925Z,71.60
2022-11-10T11:45:35.538Z,75.10
2022-11-10T11:48:55.917Z,79.40
2022-11-10T11:52:04.055Z,83.70
2022-11-10T11:55:17.814Z,86.30
2022-11-10T11:58:51.070Z,90.40
2022-11-10T12:01:56.252Z,91.20
2022-11-10T12:05:20.118Z,91.80
2022-11-10T12:09:04.566Z,92.30
2022-11-10T12:12:18.576Z,93.00
2022-11-10T12:15:23.525Z,93.30
2022-11-10T12:18:36.342Z,93.00
2022-11-10T12:22:07.647Z,93.70
2022-11-10T12:25:24.713Z,94.10
2022-11-10T12:28:39.946Z,94.00
2022-11-10T12:31:45.682Z,94.80
2022-11-10T12:34:52.461Z,94.70
2022-11-10T12:38:01.756Z,95.10
2022-11-10T12:41:10.482Z,94.90
2022-11-10T12:44:31.240Z,94.80
2022-11-10T12:47:43.721Z,94.40
2022-11-10T12:50:51.584Z,94.80
2022-11-10T12:53:54.271Z,94.90
2022-11-10T12:57:01.753Z,94.20
2022-11-10T13:00:28.010Z,94.80
2022-11-10T13:03:38.510Z,95.00
2022-11-10T13:06:52.825Z,95.10
2022-11-10T13:10:24.178Z,95.10
2022-11-10T13:13:26.921Z,94.80
2022-11-10T13:16:38.924Z,94.60
2022-11-10T13:19:40.977Z,94.80
2022-11-10T13:22:43.087Z,94.10
2022-11-10T13:25:52.633Z,93.70
2022-11-10T13:28:59.964Z,93.80
2022-11-10T13:32:08.257Z,93.60
2022-11-10T13:35:28.438Z,93.60
2022-11-10T13:38:44.548Z,93.40
2022-11-10T13:42:01.450Z,93.90
2022-11-10T13:45:28.473Z,94.30
2022-11-10T13:48:41.830Z,94.00
2022-11-10T13:52:08.683Z,93.60
2022-11-10T13:55:16.513Z,93.80
2022-11-10T13:58:26.134Z,93.30
2022-11-10T14:01:30.635Z,93.70
2022-11-10T14:04:36.001Z,94.00
2022-11-10T14:07:44.953Z,93.50
2022-11-10T14:10:51.829Z,93.60
2022-11-10T14:13:59.928Z,93.70
2022-11-10T14:17:02.204Z,93.40
2022-11-10T14:20:05.083Z,93.50
2022-11-10T14:23:16.363Z,93.40
2022-11-10T14:26:33.066Z,93.40
2022-11-10T14:29:40.275Z,93.60
2022-11-10T14:32:42.492Z,93.20
2022-11-10T14:36:04.593Z,93.50
2022-11-10T14:39:07.417Z,93.50
2022-11-10T14:42:19.237Z,93.60
2022-11-10T14:45:24.582Z,93.80
2022-11-10T14:48:29.710Z,93.60
2022-11-10T14:51:34.703Z,93.70
2022-11-10T14:54:38.350Z,93.70
2022-11-10T14:57:40.912Z,93.90
2022-11-10T15:00:44.803Z,94.10
2022-11-10T15:03:47.025Z,94.30
2022-11-10T15:06:50.976Z,94.40
2022-11-10T15:10:16.044Z,94.40
2022-11-10T15:13:27.063Z,94.60
2022-11-10T15:16:30.322Z,94.70
2022-11-10T15:19:55.678Z,95.00
2022-11-10T15:22:59.907Z,94.90
2022-11-10T15:26:02.546Z,95.20
2022-11-10T15:29:04.814Z,95.30
2022-11-10T15:32:16.363Z,95.40
2022-11-10T15:35:24.289Z,95.40
2022-11-10T15:38:30.367Z,95.60
2022-11-10T15:41:35.784Z,95.50
2022-11-10T15:44:37.849Z,95.70
2022-11-10T15:47:41.591Z,95.70
2022-11-10T15:50:48.985Z,95.70
2022-11-10T15:53:52.098Z,96.00
2022-11-10T15:56:54.414Z,96.10
2022-11-10T15:59:56.491Z,96.10
2022-11-10T16:02:58.920Z,96.40
2022-11-10T16:06:00.906Z,96.10
2022-11-10T16:09:03.783Z,96.30
2022-11-10T16:12:19.540Z,96.40
2022-11-10T16:15:21.686Z,96.30
2022-11-10T16:18:28.422Z,96.30
2022-11-10T16:21:30.562Z,96.30
2022-11-10T16:24:32.542Z,96.30
2022-11-10T16:27:35.758Z,96.50
2022-11-10T16:30:38.247Z,96.40
2022-11-10T16:33:41.610Z,96.40
2022-11-10T16:36:46.136Z,96.50
2022-11-10T16:39:48.234Z,96.60
2022-11-10T16:42:50.647Z,96.70
2022-11-10T16:45:55.851Z,96.80
2022-11-10T16:49:01.643Z,96.80
2022-11-10T16:52:11.636Z,96.90
2022-11-10T16:55:14.301Z,96.90
2022-11-10T16:58:16.430Z,97.00
2022-11-10T17:01:26.652Z,97.10
2022-11-10T17:04:28.857Z,97.20
2022-11-10T17:07:30.971Z,97.30
2022-11-10T17:10:33.117Z,97.40
2022-11-10T17:13:35.408Z,97.50
2022-11-10T17:16:39.350Z,97.60
2022-11-10T17:19:41.883Z,97.70
2022-11-10T17:22:44.244Z,97.70
2022-11-10T17:25:47.491Z,97.80
2022-11-10T17:28:49.889Z,97.90
2022-11-10T17:31:52.945Z,98.00
2022-11-10T17:34:55.004Z,98.20
2022-11-10T17:37:59.570Z,98.20
2022-11-10T17:41:01.694Z,98.30
2022-11-10T17:44:03.874Z,98.40
2022-11-10T17:47:06.055Z,98.50
2022-11-10T17:50:08.404Z,98.50
2022-11-10T17:53:24.274Z,98.80
2022-11-10T17:56:26.616Z,98.90
2022-11-10T17:59:31.574Z,99.00
2022-11-10T18:02:33.737Z,99.00
2022-11-10T18:05:36.097Z,99.00
2022-11-10T18:08:38.666Z,99.10
2022-11-10T18:11:40.806Z,99.20
2022-11-10T18:14:42.800Z,99.20
2022-11-10T18:17:45.389Z,99.20
2022-11-10T18:20:47.573Z,99.30
2022-11-10T18:23:49.634Z,99.60
2022-11-10T18:26:51.690Z,99.30
2022-11-10T18:29:54.672Z,99.30
2022-11-10T18:32:57.243Z,99.50
2022-11-10T18:36:00.496Z,99.40
2022-11-10T18:39:02.595Z,99.40
2022-11-10T18:42:05.509Z,99.50
2022-11-10T18:45:07.854Z,99.60
2022-11-10T18:48:11.173Z,99.70
2022-11-10T18:51:16.347Z,99.80
2022-11-10T18:54:18.575Z,99.80
2022-11-10T18:57:21.012Z,99.90
2022-11-10T19:00:23.229Z,99.80
2022-11-10T19:03:25.671Z,99.90
2022-11-10T19:06:28.149Z,99.90
2022-11-10T19:09:30.256Z,99.90
2022-11-10T19:12:33.439Z,99.90
2022-11-10T19:15:44.051Z,99.90
2022-11-10T19:18:46.606Z,99.90
2022-11-10T19:21:48.603Z,99.90
2022-11-10T19:28:15.567Z,99.90
2022-11-10T19:31:19.112Z,99.90
2022-11-10T19:34:21.424Z,99.90
2022-11-10T19:37:23.536Z,99.90
2022-11-10T19:40:25.671Z,99.90
2022-11-10T19:43:30.934Z,99.90
2022-11-10T19:46:36.787Z,99.90
2022-11-10T19:49:38.915Z,99.90
2022-11-10T19:52:41.444Z,99.90
2022-11-10T19:55:43.429Z,99.90
2022-11-10T19:58:46.281Z,99.90
2022-11-10T20:01:48.392Z,99.90
2022-11-10T20:05:09.091Z,99.90
2022-11-10T20:08:12.994Z,99.90
2022-11-10T20:11:18.394Z,99.90
2022-11-10T20:14:21.176Z,99.90
2022-11-10T20:17:23.210Z,99.90
2022-11-10T20:20:26.401Z,99.90
2022-11-10T20:23:33.799Z,99.90
2022-11-10T20:26:36.542Z,99.90
2022-11-10T20:29:38.533Z,99.90
2022-11-10T20:32:40.562Z,99.90
2022-11-10T20:35:44.426Z,99.90
2022-11-10T20:38:46.968Z,99.90
2022-11-10T20:41:50.900Z,99.90
2022-11-10T20:44:53.297Z,99.90
2022-11-10T20:47:55.392Z,99.90
2022-11-10T20:50:57.559Z,99.90
2022-11-10T20:54:02.878Z,99.90
2022-11-10T20:57:04.922Z,99.90
2022-11-10T21:00:07.732Z,99.90
2022-11-10T21:03:09.829Z,99.90
2022-11-10T21:06:11.875Z,99.90
2022-11-10T21:09:14.087Z,99.90
2022-11-10T21:12:34.572Z,99.90
2022-11-10T21:15:39.826Z,99.90
2022-11-10T21:18:43.055Z,99.90
2022-11-10T21:21:45.206Z,99.90
2022-11-10T21:24:47.252Z,99.90
2022-11-10T21:27:49.336Z,99.90
2022-11-10T21:30:52.003Z,99.90
2022-11-10T21:33:58.486Z,99.90
2022-11-10T21:37:01.002Z,99.90
2022-11-10T21:40:03.393Z,99.90
2022-11-10T21:43:05.572Z,99.90
2022-11-10T21:46:08.300Z,99.90
2022-11-10T21:49:10.326Z,99.90
2022-11-10T21:52:12.446Z,99.90
2022-11-10T21:55:14.531Z,99.90
2022-11-10T21:58:16.572Z,99.90
2022-11-10T22:01:19.458Z,99.90
2022-11-10T22:04:21.642Z,99.90
2022-11-10T22:07:23.702Z,99.90
2022-11-10T22:10:44.370Z,99.90
2022-11-10T22:14:05.682Z,99.90
2022-11-10T22:17:34.262Z,99.90
2022-11-10T22:20:44.836Z,99.90
2022-11-10T22:24:05.292Z,99.90
2022-11-10T22:27:08.327Z,99.90
2022-11-10T22:30:10.634Z,99.90
2022-11-10T22:33:27.665Z,99.90
2022-11-10T22:36:29.716Z,99.90
2022-11-10T22:39:50.253Z,99.90
2022-11-10T22:43:10.825Z,99.90
2022-11-10T22:46:13.165Z,99.90
2022-11-10T22:49:16.833Z,99.90
2022-11-10T22:52:18.927Z,99.90
2022-11-10T22:55:20.999Z,99.90
2022-11-10T22:58:23.094Z,99.90
2022-11-10T23:01:25.360Z,99.90
2022-11-10T23:04:28.327Z,99.90
2022-11-10T23:07:30.337Z,99.90
2022-11-10T23:10:32.412Z,99.90
2022-11-10T23:13:36.684Z,99.90
2022-11-10T23:16:38.764Z,99.90
2022-11-10T23:19:40.907Z,99.90
2022-11-10T23:22:42.976Z,99.90
2022-11-10T23:26:01.207Z,99.90
2022-11-10T23:29:03.565Z,99.90
2022-11-10T23:32:05.816Z,99.90
2022-11-10T23:35:08.703Z,99.90
2022-11-10T23:38:12.281Z,99.90
2022-11-10T23:41:23.770Z,99.90
2022-11-10T23:44:26.016Z,99.90
2022-11-10T23:47:28.625Z,99.90
2022-11-10T23:50:30.724Z,99.90
2022-11-10T23:53:34.909Z,99.90
2022-11-10T23:56:36.979Z,99.90
2022-11-10T23:59:39.009Z,99.90
